Terminal Aerodrome Forecast
Issued by NWS

Home | Current Version | Previous Version | Text Only | Print | Product List | Glossary On
Versions: 1 2 3 4 5 6 7 8 9 10 11 12 13 14
000
FTUS46 KPDT 021100
TAFRDM
TAF
KRDM 021121Z 0212/0312 VRB04KT P6SM SKC
     FM022000 32012G22KT P6SM SKC
     FM030300 32010KT P6SM SKC=

USA.gov is the U.S. government's official web portal to all federal, state and local government web resources and services.